createdAt,value
2022-12-13T00:02:27.820Z,99340.86
2022-12-13T00:05:00.279Z,99329.02
2022-12-13T00:07:34.849Z,99334.36
2022-12-13T00:10:08.105Z,99338.77
2022-12-13T00:12:42.131Z,99346.09
2022-12-13T00:15:14.675Z,99345.80
2022-12-13T00:17:47.185Z,99348.28
2022-12-13T00:20:20.060Z,99356.56
2022-12-13T00:22:54.049Z,99346.16
2022-12-13T00:25:26.490Z,99357.05
2022-12-13T00:27:59.032Z,99362.20
2022-12-13T00:30:34.742Z,99365.98
2022-12-13T00:33:07.630Z,99357.67
2022-12-13T00:35:43.575Z,99355.00
2022-12-13T00:38:15.915Z,99357.67
2022-12-13T00:40:48.752Z,99362.73
2022-12-13T00:43:21.256Z,99362.73
2022-12-13T00:45:53.793Z,99362.39
2022-12-13T00:48:26.255Z,99353.80
2022-12-13T00:50:58.849Z,99355.83
2022-12-13T00:53:31.375Z,99358.29
2022-12-13T00:56:04.681Z,99360.31
2022-12-13T00:58:38.616Z,99359.17
2022-12-13T01:01:15.783Z,99358.80
2022-12-13T01:03:48.210Z,99356.97
2022-12-13T01:06:24.385Z,99361.27
2022-12-13T01:08:56.936Z,99365.58
2022-12-13T01:11:30.108Z,99365.17
2022-12-13T01:14:02.686Z,99368.34
2022-12-13T01:16:35.249Z,99371.38
2022-12-13T01:19:07.844Z,99366.41
2022-12-13T01:21:40.348Z,99367.28
2022-12-13T01:24:13.485Z,99375.01
2022-12-13T01:26:45.967Z,99377.77
2022-12-13T01:29:19.837Z,99371.84
2022-12-13T01:31:53.023Z,99369.66
2022-12-13T01:34:28.517Z,99374.14
2022-12-13T01:37:00.896Z,99374.23
2022-12-13T01:39:38.025Z,99373.08
2022-12-13T01:42:07.675Z,99374.51
2022-12-13T01:45:06.391Z,99379.02
2022-12-13T01:47:48.752Z,99379.02
2022-12-13T01:50:25.851Z,99383.95
2022-12-13T01:53:00.243Z,99382.71
2022-12-13T01:55:32.944Z,99379.38
2022-12-13T01:58:06.016Z,99386.84
2022-12-13T02:00:40.860Z,99383.30
2022-12-13T02:03:21.388Z,99380.33
2022-12-13T02:06:00.541Z,99382.43
2022-12-13T02:08:35.951Z,99384.31
2022-12-13T02:11:08.073Z,99382.41
2022-12-13T02:13:41.388Z,99380.38
2022-12-13T02:16:37.694Z,99379.91
2022-12-13T02:20:00.176Z,99375.53
2022-12-13T02:22:52.764Z,99368.86
2022-12-13T02:26:16.586Z,99367.91
2022-12-13T02:29:13.156Z,99364.87
2022-12-13T02:32:01.707Z,99372.28
2022-12-13T02:35:00.957Z,99374.22
2022-12-13T02:37:50.272Z,99369.25
2022-12-13T02:40:31.605Z,99382.51
2022-12-13T02:43:23.132Z,99389.93
2022-12-13T02:46:00.889Z,99385.16
2022-12-13T02:48:38.389Z,99386.20
2022-12-13T02:51:12.188Z,99391.36
2022-12-13T02:53:46.509Z,99387.15
2022-12-13T02:56:18.973Z,99393.83
2022-12-13T02:58:54.517Z,99397.27
2022-12-13T03:02:09.734Z,99396.72
2022-12-13T03:05:06.255Z,99392.91
2022-12-13T03:08:05.008Z,99403.78
2022-12-13T03:10:45.828Z,99409.77
2022-12-13T03:13:38.213Z,99417.52
2022-12-13T03:16:31.157Z,99408.53
2022-12-13T03:19:05.847Z,99418.66
2022-12-13T03:21:49.746Z,99410.82
2022-12-13T03:24:22.793Z,99410.82
2022-12-13T03:26:55.113Z,99417.11
2022-12-13T03:29:27.475Z,99402.05
2022-12-13T03:32:00.317Z,99404.72
2022-12-13T03:34:43.742Z,99402.78
2022-12-13T03:37:07.057Z,99395.53
2022-12-13T03:39:39.790Z,99393.91
2022-12-13T03:42:12.252Z,99387.12
2022-12-13T03:44:45.193Z,99383.41
2022-12-13T03:47:17.666Z,99373.02
2022-12-13T03:49:54.121Z,99377.22
2022-12-13T03:52:24.887Z,99376.48
2022-12-13T03:54:57.701Z,99376.08
2022-12-13T03:57:30.054Z,99371.33
2022-12-13T04:00:04.553Z,99375.34
2022-12-13T04:02:38.882Z,99368.26
2022-12-13T04:05:11.487Z,99366.92
2022-12-13T04:07:48.257Z,99370.94
2022-12-13T04:10:26.296Z,99381.45
2022-12-13T04:13:11.484Z,99386.02
2022-12-13T04:15:49.227Z,99389.58
2022-12-13T04:18:21.827Z,99385.86
2022-12-13T04:20:54.437Z,99390.05
2022-12-13T04:23:27.893Z,99389.31
2022-12-13T04:26:01.087Z,99389.88
2022-12-13T04:28:33.794Z,99393.88
2022-12-13T04:31:06.552Z,99397.89
2022-12-13T04:33:39.174Z,99394.08
2022-12-13T04:36:14.644Z,99394.17
2022-12-13T04:38:49.006Z,99397.53
2022-12-13T04:41:22.036Z,99399.80
2022-12-13T04:43:56.169Z,99396.48
2022-12-13T04:46:28.841Z,99399.25
2022-12-13T04:49:02.065Z,99398.09
2022-12-13T04:51:35.025Z,99390.45
2022-12-13T04:54:23.860Z,99390.08
2022-12-13T04:56:42.792Z,99387.97
2022-12-13T04:59:16.268Z,99387.97
2022-12-13T05:01:49.082Z,99391.41
2022-12-13T05:04:21.460Z,99397.13
2022-12-13T05:06:54.094Z,99395.79
2022-12-13T05:09:26.782Z,99394.86
2022-12-13T05:12:01.533Z,99392.19
2022-12-13T05:14:33.687Z,99393.80
2022-12-13T05:17:07.189Z,99405.55
2022-12-13T05:19:39.637Z,99410.11
2022-12-13T05:22:20.847Z,99412.78
2022-12-13T05:24:52.675Z,99415.36
2022-12-13T05:27:26.882Z,99423.09
2022-12-13T05:30:03.700Z,99424.23
2022-12-13T05:32:44.005Z,99418.89
2022-12-13T05:35:22.443Z,99422.68
2022-12-13T05:37:53.333Z,99429.17
2022-12-13T05:40:26.487Z,99419.36
2022-12-13T05:43:01.658Z,99418.30
2022-12-13T05:45:33.576Z,99418.30
2022-12-13T05:48:06.505Z,99424.41
2022-12-13T05:50:39.648Z,99436.24
2022-12-13T05:53:12.626Z,99426.80
2022-12-13T05:55:45.384Z,99422.79
2022-12-13T05:58:23.261Z,99423.26
2022-12-13T06:00:51.834Z,99419.25
2022-12-13T06:03:24.442Z,99415.52
2022-12-13T06:05:56.849Z,99399.98
2022-12-13T06:08:30.222Z,99408.38
2022-12-13T06:11:10.662Z,99404.75
2022-12-13T06:13:42.318Z,99418.98
2022-12-13T06:16:23.479Z,99423.53
2022-12-13T06:18:47.802Z,99425.17
2022-12-13T06:21:21.888Z,99424.86
2022-12-13T06:23:54.412Z,99419.05
2022-12-13T06:26:26.733Z,99419.92
2022-12-13T06:28:59.584Z,99418.69
2022-12-13T06:31:32.083Z,99420.13
2022-12-13T06:34:13.776Z,99420.13
2022-12-13T06:36:41.009Z,99423.44
2022-12-13T06:39:15.169Z,99430.98
2022-12-13T06:41:47.570Z,99441.95
2022-12-13T06:44:20.020Z,99442.81
2022-12-13T06:46:52.500Z,99443.46
2022-12-13T06:49:26.861Z,99448.81
2022-12-13T06:52:01.375Z,99446.83
2022-12-13T06:54:34.128Z,99452.63
2022-12-13T06:57:06.556Z,99454.84
2022-12-13T06:59:40.070Z,99452.95
2022-12-13T07:02:24.489Z,99455.02
2022-12-13T07:04:47.028Z,99457.23
2022-12-13T07:07:19.503Z,99472.30
2022-12-13T07:09:51.986Z,99479.25
2022-12-13T07:12:24.972Z,99482.41
2022-12-13T07:14:57.698Z,99482.22
2022-12-13T07:17:31.969Z,99487.09
2022-12-13T07:20:09.361Z,99492.71
2022-12-13T07:22:47.851Z,99500.44
2022-12-13T07:25:27.926Z,99503.39
2022-12-13T07:27:51.595Z,99497.85
2022-12-13T07:30:24.124Z,99494.21
2022-12-13T07:32:56.619Z,99492.22
2022-12-13T07:35:29.786Z,99487.93
2022-12-13T07:38:02.331Z,99501.28
2022-12-13T07:40:38.671Z,99504.14
2022-12-13T07:43:13.144Z,99493.08
2022-12-13T07:45:46.613Z,99495.58
2022-12-13T07:48:20.286Z,99500.52
2022-12-13T07:50:54.755Z,99508.36
2022-12-13T07:53:27.081Z,99505.87
2022-12-13T07:56:01.139Z,99505.51
2022-12-13T07:58:36.799Z,99504.45
2022-12-13T08:01:12.236Z,99509.61
2022-12-13T08:03:44.672Z,99515.91
2022-12-13T08:06:18.885Z,99509.14
2022-12-13T08:08:51.961Z,99502.46
2022-12-13T08:11:24.642Z,99518.67
2022-12-13T08:13:57.848Z,99522.03
2022-12-13T08:16:30.772Z,99508.17
2022-12-13T08:19:04.534Z,99504.94
2022-12-13T08:21:57.826Z,99509.88
2022-12-13T08:24:15.867Z,99517.34
2022-12-13T08:26:48.526Z,99516.88
2022-12-13T08:29:22.819Z,99515.52
2022-12-13T08:31:55.595Z,99512.66
2022-12-13T08:34:29.556Z,99520.49
2022-12-13T08:37:04.233Z,99519.81
2022-12-13T08:39:39.029Z,99511.02
2022-12-13T08:42:19.845Z,99513.33
2022-12-13T08:44:54.122Z,99519.36
2022-12-13T08:47:27.852Z,99517.41
2022-12-13T08:50:02.251Z,99505.00
2022-12-13T08:52:39.801Z,99507.30
2022-12-13T08:55:16.816Z,99497.77
2022-12-13T08:57:50.192Z,99503.22
2022-12-13T09:00:22.877Z,99502.73
2022-12-13T09:03:16.923Z,99503.80
2022-12-13T09:05:49.474Z,99507.61
2022-12-13T09:08:24.320Z,99504.94
2022-12-13T09:11:10.486Z,99509.69
2022-12-13T09:13:43.190Z,99511.70
2022-12-13T09:16:23.383Z,99513.41
2022-12-13T09:18:56.495Z,99508.46
2022-12-13T09:21:31.697Z,99505.00
2022-12-13T09:24:04.515Z,99503.56
2022-12-13T09:26:38.797Z,99509.69
2022-12-13T09:29:11.968Z,99502.70
2022-12-13T09:31:49.632Z,99501.48
2022-12-13T09:34:19.327Z,99499.77
2022-12-13T09:36:51.787Z,99495.84
2022-12-13T09:39:26.052Z,99484.50
2022-12-13T09:42:00.910Z,99486.02
2022-12-13T09:44:44.042Z,99492.88
2022-12-13T09:47:23.174Z,99494.71
2022-12-13T09:49:53.614Z,99495.08
2022-12-13T09:52:26.371Z,99496.69
2022-12-13T09:55:00.645Z,99489.62
2022-12-13T09:57:34.441Z,99483.80
2022-12-13T10:00:11.765Z,99489.33
2022-12-13T10:02:57.467Z,99484.63
2022-12-13T10:05:39.456Z,99484.42
2022-12-13T10:08:16.950Z,99475.27
2022-12-13T10:10:50.872Z,99472.97
2022-12-13T10:14:10.602Z,99477.44
2022-12-13T10:16:50.219Z,99472.40
2022-12-13T10:19:41.202Z,99459.13
2022-12-13T10:22:16.546Z,99463.88
2022-12-13T10:24:59.808Z,99463.04
2022-12-13T10:27:41.932Z,99467.25
2022-12-13T10:30:28.712Z,99464.17
2022-12-13T10:33:07.406Z,99460.36
2022-12-13T10:35:51.685Z,99464.38
2022-12-13T10:38:31.901Z,99452.11
2022-12-13T10:41:04.699Z,99452.70
2022-12-13T10:43:38.351Z,99451.20
2022-12-13T10:46:14.700Z,99448.89
2022-12-13T10:48:52.337Z,99449.27
2022-12-13T10:51:25.020Z,99446.79
2022-12-13T10:53:59.564Z,99442.97
2022-12-13T10:56:53.650Z,99436.28
2022-12-13T10:59:37.837Z,99438.96
2022-12-13T11:02:33.333Z,99419.88
2022-12-13T11:05:29.827Z,99416.63
2022-12-13T11:08:26.632Z,99416.63
2022-12-13T11:11:04.703Z,99416.83
2022-12-13T11:13:46.642Z,99418.37
2022-12-13T11:16:29.205Z,99428.70
2022-12-13T11:19:12.107Z,99430.13
2022-12-13T11:21:49.234Z,99422.58
2022-12-13T11:24:50.433Z,99429.26
2022-12-13T11:27:48.656Z,99429.45
2022-12-13T11:30:40.670Z,99422.41
2022-12-13T11:33:33.002Z,99415.91
2022-12-13T11:36:25.399Z,99419.86
2022-12-13T11:39:08.711Z,99425.09
2022-12-13T11:41:53.361Z,99419.75
2022-12-13T11:44:30.768Z,99422.22
2022-12-13T11:47:03.857Z,99424.16
2022-12-13T11:49:42.464Z,99422.05
2022-12-13T11:52:30.209Z,99423.58
2022-12-13T11:55:31.348Z,99423.78
2022-12-13T11:58:32.600Z,99421.01
2022-12-13T12:01:00.101Z,99422.84
2022-12-13T12:03:50.139Z,99431.60
2022-12-13T12:06:30.776Z,99427.03
2022-12-13T12:09:07.352Z,99431.77
2022-12-13T12:12:02.604Z,99440.30
2022-12-13T12:14:58.157Z,99437.80
2022-12-13T12:17:37.852Z,99436.27
2022-12-13T12:20:10.069Z,99434.46
2022-12-13T12:22:58.480Z,99434.05
2022-12-13T12:26:08.041Z,99436.92
2022-12-13T12:28:57.344Z,99439.89
2022-12-13T12:31:51.048Z,99449.95
2022-12-13T12:34:45.529Z,99448.13
2022-12-13T12:37:53.707Z,99444.03
2022-12-13T12:41:18.053Z,99450.89
2022-12-13T12:43:45.148Z,99440.69
2022-12-13T12:47:18.050Z,99440.69
2022-12-13T12:49:40.353Z,99440.41
2022-12-13T12:52:35.433Z,99446.78
2022-12-13T12:55:18.451Z,99446.70
2022-12-13T12:58:01.519Z,99448.41
2022-12-13T13:01:03.136Z,99448.13
2022-12-13T13:03:37.977Z,99443.27
2022-12-13T13:06:24.619Z,99445.77
2022-12-13T13:09:07.637Z,99448.44
2022-12-13T13:11:43.260Z,99447.97
2022-12-13T13:14:33.919Z,99446.73
2022-12-13T13:17:29.154Z,99447.97
2022-12-13T13:20:24.367Z,99450.27
2022-12-13T13:23:38.975Z,99445.12
2022-12-13T13:25:43.956Z,99437.56
2022-12-13T13:28:20.242Z,99444.25
2022-12-13T13:31:10.174Z,99437.86
2022-12-13T13:33:48.625Z,99432.98
2022-12-13T13:36:46.761Z,99428.70
2022-12-13T13:39:30.769Z,99432.05
2022-12-13T13:42:19.232Z,99432.71
2022-12-13T13:45:13.275Z,99431.09
2022-12-13T13:47:45.619Z,99427.46
2022-12-13T13:50:31.656Z,99431.84
2022-12-13T13:53:50.180Z,99429.17
2022-12-13T13:56:50.046Z,99428.33
2022-12-13T13:59:51.645Z,99432.81
2022-12-13T14:02:52.043Z,99435.08
2022-12-13T14:06:00.207Z,99430.42
2022-12-13T14:08:49.960Z,99436.82
2022-12-13T14:12:06.186Z,99430.33
2022-12-13T14:15:01.898Z,99429.55
2022-12-13T14:18:21.493Z,99437.19
2022-12-13T14:21:25.697Z,99439.86
2022-12-13T14:24:17.597Z,99437.19
2022-12-13T14:27:15.498Z,99434.61
2022-12-13T14:29:58.705Z,99440.23
2022-12-13T14:32:28.806Z,99434.98
2022-12-13T14:35:26.260Z,99438.62
2022-12-13T14:37:37.968Z,99442.13
2022-12-13T14:40:27.235Z,99442.63
2022-12-13T14:42:59.664Z,99449.39
2022-12-13T14:45:36.751Z,99455.66
2022-12-13T14:48:31.712Z,99455.19
2022-12-13T14:51:04.941Z,99454.82
2022-12-13T14:53:41.758Z,99454.91
2022-12-13T14:56:27.637Z,99452.70
2022-12-13T14:59:00.068Z,99453.17
2022-12-13T15:01:36.656Z,99454.32
2022-12-13T15:04:29.628Z,99454.54
2022-12-13T15:07:16.103Z,99453.11
2022-12-13T15:09:48.553Z,99454.91
2022-12-13T15:12:24.540Z,99451.69
2022-12-13T15:15:03.548Z,99447.09
2022-12-13T15:17:40.866Z,99449.11
2022-12-13T15:20:30.862Z,99446.72
2022-12-13T15:23:15.835Z,99445.67
2022-12-13T15:25:55.175Z,99443.96
2022-12-13T15:28:30.579Z,99439.67
2022-12-13T15:31:02.936Z,99445.02
2022-12-13T15:33:42.546Z,99448.61
2022-12-13T15:36:27.259Z,99442.91
2022-12-13T15:39:03.043Z,99443.09
2022-12-13T15:41:38.053Z,99446.17
2022-12-13T15:44:40.278Z,99445.98
2022-12-13T15:47:28.513Z,99441.56
2022-12-13T15:49:59.370Z,99455.70
2022-12-13T15:52:39.766Z,99463.34
2022-12-13T15:55:19.479Z,99458.92
2022-12-13T15:57:58.794Z,99451.59
2022-12-13T16:00:34.540Z,99454.36
2022-12-13T16:03:19.315Z,99455.20
2022-12-13T16:05:57.486Z,99458.92
2022-12-13T16:08:40.744Z,99460.95
2022-12-13T16:11:13.049Z,99464.27
2022-12-13T16:13:47.539Z,99453.22
2022-12-13T16:16:30.771Z,99465.52
2022-12-13T16:19:03.017Z,99458.92
2022-12-13T16:21:37.184Z,99459.80
2022-12-13T16:24:09.887Z,99468.49
2022-12-13T16:26:47.296Z,99465.64
2022-12-13T16:29:20.067Z,99463.89
2022-12-13T16:31:54.891Z,99470.57
2022-12-13T16:34:26.707Z,99468.18
2022-12-13T16:37:00.719Z,99473.83
2022-12-13T16:39:33.232Z,99472.97
2022-12-13T16:42:06.199Z,99477.84
2022-12-13T16:44:39.538Z,99474.20
2022-12-13T16:47:24.399Z,99476.88
2022-12-13T16:49:51.159Z,99475.36
2022-12-13T16:52:23.586Z,99474.11
2022-12-13T16:54:57.590Z,99480.60
2022-12-13T16:57:30.005Z,99467.34
2022-12-13T17:00:02.299Z,99473.05
2022-12-13T17:02:34.909Z,99467.34
2022-12-13T17:05:08.070Z,99467.34
2022-12-13T17:07:40.430Z,99471.07
2022-12-13T17:10:13.820Z,99474.30
2022-12-13T17:12:47.920Z,99472.59
2022-12-13T17:15:20.545Z,99478.21
2022-12-13T17:17:55.377Z,99468.58
2022-12-13T17:20:28.049Z,99476.13
2022-12-13T17:23:01.652Z,99472.49
2022-12-13T17:25:36.072Z,99471.34
2022-12-13T17:28:08.568Z,99485.08
2022-12-13T17:30:41.314Z,99475.45
2022-12-13T17:33:14.493Z,99484.70
2022-12-13T17:36:05.292Z,99480.05
2022-12-13T17:39:01.520Z,99479.17
2022-12-13T17:41:34.010Z,99483.55
2022-12-13T17:44:07.048Z,99485.85
2022-12-13T17:46:39.860Z,99486.41
2022-12-13T17:49:13.082Z,99480.33
2022-12-13T17:51:51.442Z,99482.41
2022-12-13T17:54:20.055Z,99485.48
2022-12-13T17:56:54.569Z,99479.55
2022-12-13T17:59:28.132Z,99476.31
2022-12-13T18:02:00.612Z,99484.70
2022-12-13T18:04:33.002Z,99479.36
2022-12-13T18:07:06.340Z,99487.09
2022-12-13T18:09:39.144Z,99489.08
2022-12-13T18:12:12.582Z,99493.68
2022-12-13T18:14:45.138Z,99485.85
2022-12-13T18:17:19.366Z,99491.10
2022-12-13T18:19:52.291Z,99495.98
2022-12-13T18:22:25.673Z,99499.02
2022-12-13T18:24:58.324Z,99499.67
2022-12-13T18:27:32.362Z,99501.69
2022-12-13T18:30:05.068Z,99501.88
2022-12-13T18:32:37.737Z,99510.16
2022-12-13T18:35:10.340Z,99505.66
2022-12-13T18:37:42.810Z,99511.19
2022-12-13T18:40:15.282Z,99509.38
2022-12-13T18:42:49.301Z,99516.52
2022-12-13T18:45:21.682Z,99516.74
2022-12-13T18:47:53.998Z,99523.69
2022-12-13T18:50:26.463Z,99521.58
2022-12-13T18:52:58.933Z,99530.64
2022-12-13T18:55:31.748Z,99531.56
2022-12-13T18:58:05.117Z,99533.95
2022-12-13T19:00:37.656Z,99532.05
2022-12-13T19:03:09.962Z,99537.92
2022-12-13T19:05:43.031Z,99542.20
2022-12-13T19:08:16.396Z,99554.20
2022-12-13T19:10:49.847Z,99555.08
2022-12-13T19:13:25.275Z,99556.33
2022-12-13T19:15:59.548Z,99565.17
2022-12-13T19:18:32.286Z,99560.09
2022-12-13T19:21:08.502Z,99566.28
2022-12-13T19:23:41.408Z,99571.30
2022-12-13T19:26:15.452Z,99583.42
2022-12-13T19:28:47.877Z,99573.47
2022-12-13T19:31:23.058Z,99585.61
2022-12-13T19:33:54.004Z,99593.16
2022-12-13T19:36:26.297Z,99589.03
2022-12-13T19:38:58.768Z,99593.07
2022-12-13T19:41:32.454Z,99598.11
2022-12-13T19:44:06.536Z,99594.82
2022-12-13T19:46:40.097Z,99598.23
2022-12-13T19:49:13.088Z,99593.52
2022-12-13T19:51:46.766Z,99602.63
2022-12-13T19:54:19.308Z,99601.92
2022-12-13T19:56:53.365Z,99596.30
2022-12-13T19:59:26.163Z,99603.13
2022-12-13T20:01:59.023Z,99605.00
2022-12-13T20:04:31.580Z,99599.45
2022-12-13T20:07:06.495Z,99605.81
2022-12-13T20:09:39.925Z,99604.18
2022-12-13T20:12:15.727Z,99615.38
2022-12-13T20:14:51.082Z,99613.11
2022-12-13T20:17:24.598Z,99612.02
2022-12-13T20:19:59.449Z,99622.83
2022-12-13T20:22:33.873Z,99620.42
2022-12-13T20:25:07.251Z,99619.25
2022-12-13T20:27:41.880Z,99621.34
2022-12-13T20:30:15.212Z,99616.17
2022-12-13T20:32:47.546Z,99626.06
2022-12-13T20:35:19.998Z,99627.17
2022-12-13T20:37:52.723Z,99627.25
2022-12-13T20:40:26.429Z,99640.41
2022-12-13T20:42:58.682Z,99634.67
2022-12-13T20:45:31.557Z,99641.03
2022-12-13T20:48:05.358Z,99636.09
2022-12-13T20:50:39.450Z,99641.65
2022-12-13T20:53:12.047Z,99637.05
2022-12-13T20:55:44.503Z,99643.48
2022-12-13T20:58:18.840Z,99651.20
2022-12-13T21:00:51.351Z,99652.15
2022-12-13T21:03:25.381Z,99652.69
2022-12-13T21:05:58.197Z,99653.70
2022-12-13T21:08:49.016Z,99654.35
2022-12-13T21:11:33.970Z,99653.17
2022-12-13T21:14:23.314Z,99658.30
2022-12-13T21:17:04.636Z,99663.55
2022-12-13T21:19:40.454Z,99657.31
2022-12-13T21:22:12.886Z,99658.16
2022-12-13T21:24:47.087Z,99657.31
2022-12-13T21:27:19.948Z,99664.50
2022-12-13T21:29:52.466Z,99657.53
2022-12-13T21:32:25.109Z,99664.03
2022-12-13T21:34:57.801Z,99659.32
2022-12-13T21:37:30.770Z,99659.70
2022-12-13T21:40:03.410Z,99659.63
2022-12-13T21:42:35.931Z,99663.47
2022-12-13T21:45:09.278Z,99648.76
2022-12-13T21:47:42.142Z,99651.92
2022-12-13T21:50:14.993Z,99656.22
2022-12-13T21:52:49.740Z,99663.75
2022-12-13T21:55:38.836Z,99660.06
2022-12-13T21:58:14.985Z,99657.78
2022-12-13T22:00:48.817Z,99657.02
2022-12-13T22:03:21.587Z,99657.24
2022-12-13T22:05:54.068Z,99660.13
2022-12-13T22:08:27.358Z,99661.54
2022-12-13T22:11:21.285Z,99664.36
2022-12-13T22:13:51.770Z,99661.23
2022-12-13T22:16:24.849Z,99668.42
2022-12-13T22:18:58.844Z,99672.04
2022-12-13T22:21:31.795Z,99671.58
2022-12-13T22:24:04.819Z,99671.89
2022-12-13T22:26:39.121Z,99706.92
2022-12-13T22:29:13.459Z,99681.13
2022-12-13T22:31:48.813Z,99688.02
2022-12-13T22:34:19.647Z,99674.00
2022-12-13T22:36:51.790Z,99677.20
2022-12-13T22:39:24.909Z,99675.11
2022-12-13T22:41:57.243Z,99672.98
2022-12-13T22:44:31.390Z,99672.27
2022-12-13T22:47:05.261Z,99670.94
2022-12-13T22:49:38.083Z,99680.90
2022-12-13T22:52:10.380Z,99687.06
2022-12-13T22:54:43.172Z,99688.96
2022-12-13T22:57:15.461Z,99690.75
2022-12-13T22:59:48.022Z,99692.66
2022-12-13T23:02:21.229Z,99704.29
2022-12-13T23:04:54.214Z,99703.91
2022-12-13T23:07:26.999Z,99695.92
2022-12-13T23:09:59.548Z,99703.26
2022-12-13T23:12:49.990Z,99701.70
2022-12-13T23:15:22.378Z,99702.19
2022-12-13T23:17:54.851Z,99702.79
2022-12-13T23:20:28.181Z,99704.27
2022-12-13T23:23:00.611Z,99707.46
2022-12-13T23:25:33.266Z,99708.97
2022-12-13T23:28:05.610Z,99707.80
2022-12-13T23:30:38.429Z,99712.83
2022-12-13T23:33:11.029Z,99715.23
2022-12-13T23:35:43.428Z,99708.77
2022-12-13T23:38:15.927Z,99717.28
2022-12-13T23:40:48.393Z,99713.05
2022-12-13T23:43:20.872Z,99710.13
2022-12-13T23:45:53.655Z,99705.59
2022-12-13T23:48:27.159Z,99713.11
2022-12-13T23:50:59.999Z,99713.64
2022-12-13T23:53:32.927Z,99717.63
2022-12-13T23:56:08.446Z,99717.71
2022-12-13T23:58:41.877Z,99724.14
